sensor_id;sensor_type;location;lat;lon;timestamp;temperature;humidity
56428;DHT22;42331;53.578;9.760;2023-02-15T00:01:51;3.10;99.90
56428;DHT22;42331;53.578;9.760;2023-02-15T00:04:24;3.00;99.90
56428;DHT22;42331;53.578;9.760;2023-02-15T00:06:55;2.90;99.90
56428;DHT22;42331;53.578;9.760;2023-02-15T00:09:25;2.80;99.90
56428;DHT22;42331;53.578;9.760;2023-02-15T00:11:56;2.80;99.90
56428;DHT22;42331;53.578;9.760;2023-02-15T00:14:27;2.70;99.90
56428;DHT22;42331;53.578;9.760;2023-02-15T00:16:58;2.70;99.90
56428;DHT22;42331;53.578;9.760;2023-02-15T00:19:30;2.70;99.90
56428;DHT22;42331;53.578;9.760;2023-02-15T00:22:01;2.70;99.90
56428;DHT22;42331;53.578;9.760;2023-02-15T00:24:32;2.60;99.90
56428;DHT22;42331;53.578;9.760;2023-02-15T00:27:02;2.60;99.90
56428;DHT22;42331;53.578;9.760;2023-02-15T00:29:33;2.50;99.90
56428;DHT22;42331;53.578;9.760;2023-02-15T00:32:04;2.50;99.90
56428;DHT22;42331;53.578;9.760;2023-02-15T00:34:34;2.40;99.90
56428;DHT22;42331;53.578;9.760;2023-02-15T00:37:05;2.40;99.90
56428;DHT22;42331;53.578;9.760;2023-02-15T00:39:36;2.30;99.90
56428;DHT22;42331;53.578;9.760;2023-02-15T00:42:06;2.40;99.90
56428;DHT22;42331;53.578;9.760;2023-02-15T00:44:37;2.30;99.90
56428;DHT22;42331;53.578;9.760;2023-02-15T00:47:08;2.30;99.90
56428;DHT22;42331;53.578;9.760;2023-02-15T00:49:38;2.40;99.90
56428;DHT22;42331;53.578;9.760;2023-02-15T00:52:09;2.40;99.90
56428;DHT22;42331;53.578;9.760;2023-02-15T00:54:40;2.40;99.90
56428;DHT22;42331;53.578;9.760;2023-02-15T00:57:10;2.40;99.90
56428;DHT22;42331;53.578;9.760;2023-02-15T00:59:41;2.40;99.90
56428;DHT22;42331;53.578;9.760;2023-02-15T01:02:12;2.40;99.90
56428;DHT22;42331;53.578;9.760;2023-02-15T01:04:43;2.20;99.90
56428;DHT22;42331;53.578;9.760;2023-02-15T01:07:13;2.20;99.90
56428;DHT22;42331;53.578;9.760;2023-02-15T01:09:44;2.20;99.90
56428;DHT22;42331;53.578;9.760;2023-02-15T01:12:14;2.20;99.90
56428;DHT22;42331;53.578;9.760;2023-02-15T01:14:45;2.20;99.90
56428;DHT22;42331;53.578;9.760;2023-02-15T01:17:16;2.20;99.90
56428;DHT22;42331;53.578;9.760;2023-02-15T01:19:47;2.20;99.90
56428;DHT22;42331;53.578;9.760;2023-02-15T01:22:18;2.20;99.90
56428;DHT22;42331;53.578;9.760;2023-02-15T01:24:49;2.20;99.90
56428;DHT22;42331;53.578;9.760;2023-02-15T01:27:20;2.20;99.90
56428;DHT22;42331;53.578;9.760;2023-02-15T01:29:51;2.40;99.90
56428;DHT22;42331;53.578;9.760;2023-02-15T01:32:22;2.40;99.90
56428;DHT22;42331;53.578;9.760;2023-02-15T01:34:53;2.40;99.90
56428;DHT22;42331;53.578;9.760;2023-02-15T01:37:23;2.50;99.90
56428;DHT22;42331;53.578;9.760;2023-02-15T01:39:54;2.50;99.90
56428;DHT22;42331;53.578;9.760;2023-02-15T01:42:25;2.50;99.90
56428;DHT22;42331;53.578;9.760;2023-02-15T01:45:19;2.50;99.90
56428;DHT22;42331;53.578;9.760;2023-02-15T01:48:33;2.50;99.90
56428;DHT22;42331;53.578;9.760;2023-02-15T01:50:45;2.60;99.90
56428;DHT22;42331;53.578;9.760;2023-02-15T01:53:43;2.70;99.90
56428;DHT22;42331;53.578;9.760;2023-02-15T01:56:27;2.70;99.90
56428;DHT22;42331;53.578;9.760;2023-02-15T01:59:04;2.70;99.90
56428;DHT22;42331;53.578;9.760;2023-02-15T02:01:37;2.70;99.90
56428;DHT22;42331;53.578;9.760;2023-02-15T02:06:54;2.70;99.90
56428;DHT22;42331;53.578;9.760;2023-02-15T02:09:25;2.70;99.90
56428;DHT22;42331;53.578;9.760;2023-02-15T02:11:56;2.70;99.90
56428;DHT22;42331;53.578;9.760;2023-02-15T02:14:27;2.80;99.90
56428;DHT22;42331;53.578;9.760;2023-02-15T02:25:39;2.90;99.90
56428;DHT22;42331;53.578;9.760;2023-02-15T02:34:13;3.00;99.90
56428;DHT22;42331;53.578;9.760;2023-02-15T02:39:51;3.00;99.90
56428;DHT22;42331;53.578;9.760;2023-02-15T02:45:15;3.10;99.90
56428;DHT22;42331;53.578;9.760;2023-02-15T02:47:50;3.10;99.90
56428;DHT22;42331;53.578;9.760;2023-02-15T02:50:27;3.20;99.90
56428;DHT22;42331;53.578;9.760;2023-02-15T02:52:59;3.20;99.90
56428;DHT22;42331;53.578;9.760;2023-02-15T02:55:46;3.20;99.90
56428;DHT22;42331;53.578;9.760;2023-02-15T03:01:03;3.30;99.90
56428;DHT22;42331;53.578;9.760;2023-02-15T03:03:42;3.40;99.90
56428;DHT22;42331;53.578;9.760;2023-02-15T03:06:36;3.30;99.90
56428;DHT22;42331;53.578;9.760;2023-02-15T03:09:18;3.30;99.90
56428;DHT22;42331;53.578;9.760;2023-02-15T03:11:50;3.40;99.90
56428;DHT22;42331;53.578;9.760;2023-02-15T03:14:21;3.50;99.90
56428;DHT22;42331;53.578;9.760;2023-02-15T03:16:52;3.50;99.90
56428;DHT22;42331;53.578;9.760;2023-02-15T03:19:25;3.50;99.90
56428;DHT22;42331;53.578;9.760;2023-02-15T03:22:03;3.50;99.90
56428;DHT22;42331;53.578;9.760;2023-02-15T03:24:57;3.50;99.90
56428;DHT22;42331;53.578;9.760;2023-02-15T03:27:54;3.50;99.90
56428;DHT22;42331;53.578;9.760;2023-02-15T03:30:26;3.50;99.90
56428;DHT22;42331;53.578;9.760;2023-02-15T03:32:59;3.50;99.90
56428;DHT22;42331;53.578;9.760;2023-02-15T03:38:15;3.60;99.90
56428;DHT22;42331;53.578;9.760;2023-02-15T03:40:48;3.60;99.90
56428;DHT22;42331;53.578;9.760;2023-02-15T03:43:44;3.50;99.90
56428;DHT22;42331;53.578;9.760;2023-02-15T03:49:10;3.50;99.90
56428;DHT22;42331;53.578;9.760;2023-02-15T03:51:42;3.50;99.90
56428;DHT22;42331;53.578;9.760;2023-02-15T03:54:23;3.40;99.90
56428;DHT22;42331;53.578;9.760;2023-02-15T04:00:22;3.50;99.90
56428;DHT22;42331;53.578;9.760;2023-02-15T04:05:45;3.50;99.90
56428;DHT22;42331;53.578;9.760;2023-02-15T04:08:16;3.60;99.90
56428;DHT22;42331;53.578;9.760;2023-02-15T04:10:47;3.60;99.90
56428;DHT22;42331;53.578;9.760;2023-02-15T04:13:29;3.50;99.90
56428;DHT22;42331;53.578;9.760;2023-02-15T04:16:00;3.60;99.90
56428;DHT22;42331;53.578;9.760;2023-02-15T04:18:39;3.60;99.90
56428;DHT22;42331;53.578;9.760;2023-02-15T04:21:29;3.60;99.90
56428;DHT22;42331;53.578;9.760;2023-02-15T04:24:19;3.60;99.90
56428;DHT22;42331;53.578;9.760;2023-02-15T04:27:08;3.50;99.90
56428;DHT22;42331;53.578;9.760;2023-02-15T04:29:39;3.50;99.90
56428;DHT22;42331;53.578;9.760;2023-02-15T04:32:10;3.50;99.90
56428;DHT22;42331;53.578;9.760;2023-02-15T04:34:40;3.50;99.90
56428;DHT22;42331;53.578;9.760;2023-02-15T04:37:11;3.60;99.90
56428;DHT22;42331;53.578;9.760;2023-02-15T04:39:42;3.60;99.90
56428;DHT22;42331;53.578;9.760;2023-02-15T04:42:12;3.60;99.90
56428;DHT22;42331;53.578;9.760;2023-02-15T04:44:43;3.60;99.90
56428;DHT22;42331;53.578;9.760;2023-02-15T04:47:14;3.50;99.90
56428;DHT22;42331;53.578;9.760;2023-02-15T04:49:45;3.70;99.90
56428;DHT22;42331;53.578;9.760;2023-02-15T04:52:19;3.60;99.90
56428;DHT22;42331;53.578;9.760;2023-02-15T04:54:50;3.50;99.90
56428;DHT22;42331;53.578;9.760;2023-02-15T04:57:20;3.40;99.90
56428;DHT22;42331;53.578;9.760;2023-02-15T04:59:54;3.40;99.90
56428;DHT22;42331;53.578;9.760;2023-02-15T05:02:25;3.40;99.90
56428;DHT22;42331;53.578;9.760;2023-02-15T05:04:56;3.40;99.90
56428;DHT22;42331;53.578;9.760;2023-02-15T05:07:27;3.40;99.90
56428;DHT22;42331;53.578;9.760;2023-02-15T05:09:58;3.30;99.90
56428;DHT22;42331;53.578;9.760;2023-02-15T05:12:28;3.20;99.90
56428;DHT22;42331;53.578;9.760;2023-02-15T05:14:59;3.10;99.90
56428;DHT22;42331;53.578;9.760;2023-02-15T05:17:30;3.10;99.90
56428;DHT22;42331;53.578;9.760;2023-02-15T05:20:00;3.10;99.90
56428;DHT22;42331;53.578;9.760;2023-02-15T05:22:31;3.00;99.90
56428;DHT22;42331;53.578;9.760;2023-02-15T05:25:02;3.10;99.90
56428;DHT22;42331;53.578;9.760;2023-02-15T05:27:51;3.10;99.90
56428;DHT22;42331;53.578;9.760;2023-02-15T05:30:40;3.00;99.90
56428;DHT22;42331;53.578;9.760;2023-02-15T05:33:21;2.90;99.90
56428;DHT22;42331;53.578;9.760;2023-02-15T05:35:52;2.80;99.90
56428;DHT22;42331;53.578;9.760;2023-02-15T05:38:22;2.70;99.90
56428;DHT22;42331;53.578;9.760;2023-02-15T05:40:54;2.60;99.90
56428;DHT22;42331;53.578;9.760;2023-02-15T05:43:33;2.60;99.90
56428;DHT22;42331;53.578;9.760;2023-02-15T05:46:05;2.60;99.90
56428;DHT22;42331;53.578;9.760;2023-02-15T05:48:36;2.60;99.90
56428;DHT22;42331;53.578;9.760;2023-02-15T05:51:29;2.60;99.90
56428;DHT22;42331;53.578;9.760;2023-02-15T05:54:02;2.70;99.90
56428;DHT22;42331;53.578;9.760;2023-02-15T05:56:33;2.80;99.90
56428;DHT22;42331;53.578;9.760;2023-02-15T05:59:04;2.70;99.90
56428;DHT22;42331;53.578;9.760;2023-02-15T06:01:35;2.70;99.90
56428;DHT22;42331;53.578;9.760;2023-02-15T06:04:05;2.60;99.90
56428;DHT22;42331;53.578;9.760;2023-02-15T06:06:36;2.70;99.90
56428;DHT22;42331;53.578;9.760;2023-02-15T06:09:07;2.70;99.90
56428;DHT22;42331;53.578;9.760;2023-02-15T06:11:40;2.80;99.90
56428;DHT22;42331;53.578;9.760;2023-02-15T06:14:11;2.80;99.90
56428;DHT22;42331;53.578;9.760;2023-02-15T06:16:45;2.80;99.90
56428;DHT22;42331;53.578;9.760;2023-02-15T06:19:16;2.80;99.90
56428;DHT22;42331;53.578;9.760;2023-02-15T06:21:52;2.70;99.90
56428;DHT22;42331;53.578;9.760;2023-02-15T06:24:23;2.70;99.90
56428;DHT22;42331;53.578;9.760;2023-02-15T06:26:53;2.70;99.90
56428;DHT22;42331;53.578;9.760;2023-02-15T06:29:24;2.60;99.90
56428;DHT22;42331;53.578;9.760;2023-02-15T06:31:57;2.60;99.90
56428;DHT22;42331;53.578;9.760;2023-02-15T06:34:27;2.60;99.90
56428;DHT22;42331;53.578;9.760;2023-02-15T06:36:58;2.60;99.90
56428;DHT22;42331;53.578;9.760;2023-02-15T06:39:29;2.60;99.90
56428;DHT22;42331;53.578;9.760;2023-02-15T06:42:00;2.60;99.90
56428;DHT22;42331;53.578;9.760;2023-02-15T06:44:30;2.60;99.90
56428;DHT22;42331;53.578;9.760;2023-02-15T06:47:01;2.70;99.90
56428;DHT22;42331;53.578;9.760;2023-02-15T06:49:32;2.60;99.90
56428;DHT22;42331;53.578;9.760;2023-02-15T06:52:03;2.60;99.90
56428;DHT22;42331;53.578;9.760;2023-02-15T06:54:34;2.50;99.90
56428;DHT22;42331;53.578;9.760;2023-02-15T06:57:04;2.30;99.90
56428;DHT22;42331;53.578;9.760;2023-02-15T06:59:35;2.30;99.90
56428;DHT22;42331;53.578;9.760;2023-02-15T07:02:07;2.30;99.90
56428;DHT22;42331;53.578;9.760;2023-02-15T07:04:38;2.30;99.90
56428;DHT22;42331;53.578;9.760;2023-02-15T07:07:12;2.30;99.90
56428;DHT22;42331;53.578;9.760;2023-02-15T07:09:51;2.30;99.90
56428;DHT22;42331;53.578;9.760;2023-02-15T07:12:24;2.40;99.90
56428;DHT22;42331;53.578;9.760;2023-02-15T07:15:16;2.50;99.90
56428;DHT22;42331;53.578;9.760;2023-02-15T07:17:47;2.50;99.90
56428;DHT22;42331;53.578;9.760;2023-02-15T07:20:21;2.50;99.90
56428;DHT22;42331;53.578;9.760;2023-02-15T07:22:55;2.50;99.90
56428;DHT22;42331;53.578;9.760;2023-02-15T07:25:26;2.40;99.90
56428;DHT22;42331;53.578;9.760;2023-02-15T07:28:00;2.50;99.90
56428;DHT22;42331;53.578;9.760;2023-02-15T07:38:16;2.50;99.90
56428;DHT22;42331;53.578;9.760;2023-02-15T07:40:47;2.50;99.90
56428;DHT22;42331;53.578;9.760;2023-02-15T07:43:18;2.50;99.90
56428;DHT22;42331;53.578;9.760;2023-02-15T07:45:49;2.50;99.90
56428;DHT22;42331;53.578;9.760;2023-02-15T07:48:19;2.70;99.90
56428;DHT22;42331;53.578;9.760;2023-02-15T07:50:50;2.70;99.90
56428;DHT22;42331;53.578;9.760;2023-02-15T07:53:21;2.70;99.90
56428;DHT22;42331;53.578;9.760;2023-02-15T07:55:51;2.70;99.90
56428;DHT22;42331;53.578;9.760;2023-02-15T07:58:22;2.90;99.90
56428;DHT22;42331;53.578;9.760;2023-02-15T08:01:14;2.80;99.90
56428;DHT22;42331;53.578;9.760;2023-02-15T08:03:45;2.80;99.90
56428;DHT22;42331;53.578;9.760;2023-02-15T08:06:15;2.80;99.90
56428;DHT22;42331;53.578;9.760;2023-02-15T08:08:46;2.80;99.90
56428;DHT22;42331;53.578;9.760;2023-02-15T08:11:25;2.80;99.90
56428;DHT22;42331;53.578;9.760;2023-02-15T08:16:37;2.70;99.90
56428;DHT22;42331;53.578;9.760;2023-02-15T08:19:29;2.60;99.90
56428;DHT22;42331;53.578;9.760;2023-02-15T08:22:02;2.50;99.90
56428;DHT22;42331;53.578;9.760;2023-02-15T08:24:35;2.40;99.90
56428;DHT22;42331;53.578;9.760;2023-02-15T08:27:10;2.40;99.90
56428;DHT22;42331;53.578;9.760;2023-02-15T08:29:41;2.60;99.90
56428;DHT22;42331;53.578;9.760;2023-02-15T08:32:12;2.60;99.90
56428;DHT22;42331;53.578;9.760;2023-02-15T08:34:44;2.50;99.90
56428;DHT22;42331;53.578;9.760;2023-02-15T08:37:14;2.60;99.90
56428;DHT22;42331;53.578;9.760;2023-02-15T08:39:45;2.60;99.90
56428;DHT22;42331;53.578;9.760;2023-02-15T08:42:16;2.70;99.90
56428;DHT22;42331;53.578;9.760;2023-02-15T08:44:47;2.70;99.90
56428;DHT22;42331;53.578;9.760;2023-02-15T08:47:17;2.70;99.90
56428;DHT22;42331;53.578;9.760;2023-02-15T08:49:48;2.70;99.90
56428;DHT22;42331;53.578;9.760;2023-02-15T08:52:18;2.80;99.90
56428;DHT22;42331;53.578;9.760;2023-02-15T08:54:49;2.80;99.90
56428;DHT22;42331;53.578;9.760;2023-02-15T08:57:20;2.80;99.90
56428;DHT22;42331;53.578;9.760;2023-02-15T08:59:50;2.80;99.90
56428;DHT22;42331;53.578;9.760;2023-02-15T09:02:21;2.90;99.90
56428;DHT22;42331;53.578;9.760;2023-02-15T09:04:52;2.80;99.90
56428;DHT22;42331;53.578;9.760;2023-02-15T09:07:23;2.80;99.90
56428;DHT22;42331;53.578;9.760;2023-02-15T09:09:53;2.80;99.90
56428;DHT22;42331;53.578;9.760;2023-02-15T09:12:24;3.00;99.90
56428;DHT22;42331;53.578;9.760;2023-02-15T09:14:55;3.00;99.90
56428;DHT22;42331;53.578;9.760;2023-02-15T09:17:25;3.10;99.90
56428;DHT22;42331;53.578;9.760;2023-02-15T09:19:56;3.20;99.90
56428;DHT22;42331;53.578;9.760;2023-02-15T09:22:27;3.40;99.90
56428;DHT22;42331;53.578;9.760;2023-02-15T09:25:01;3.60;99.90
56428;DHT22;42331;53.578;9.760;2023-02-15T09:27:32;3.80;99.90
56428;DHT22;42331;53.578;9.760;2023-02-15T09:30:03;3.90;99.90
56428;DHT22;42331;53.578;9.760;2023-02-15T09:32:37;3.80;99.90
56428;DHT22;42331;53.578;9.760;2023-02-15T09:35:07;4.00;99.90
56428;DHT22;42331;53.578;9.760;2023-02-15T09:37:38;4.10;99.90
56428;DHT22;42331;53.578;9.760;2023-02-15T09:40:12;4.00;99.90
56428;DHT22;42331;53.578;9.760;2023-02-15T09:46:04;4.00;99.90
56428;DHT22;42331;53.578;9.760;2023-02-15T09:48:40;4.30;99.90
56428;DHT22;42331;53.578;9.760;2023-02-15T09:54:39;4.60;99.90
56428;DHT22;42331;53.578;9.760;2023-02-15T09:57:14;4.60;99.90
56428;DHT22;42331;53.578;9.760;2023-02-15T10:03:00;4.40;99.90
56428;DHT22;42331;53.578;9.760;2023-02-15T10:05:58;4.50;99.90
56428;DHT22;42331;53.578;9.760;2023-02-15T10:25:55;3.60;99.90
56428;DHT22;42331;53.578;9.760;2023-02-15T10:28:49;3.70;99.90
56428;DHT22;42331;53.578;9.760;2023-02-15T10:34:38;4.00;99.90
56428;DHT22;42331;53.578;9.760;2023-02-15T10:43:27;3.90;99.90
56428;DHT22;42331;53.578;9.760;2023-02-15T10:55:01;4.00;99.90
56428;DHT22;42331;53.578;9.760;2023-02-15T10:57:59;4.10;99.90
56428;DHT22;42331;53.578;9.760;2023-02-15T11:03:33;4.20;99.90
56428;DHT22;42331;53.578;9.760;2023-02-15T11:06:09;4.20;99.90
56428;DHT22;42331;53.578;9.760;2023-02-15T11:08:55;4.20;99.90
56428;DHT22;42331;53.578;9.760;2023-02-15T11:11:30;4.30;99.90
56428;DHT22;42331;53.578;9.760;2023-02-15T11:14:05;4.10;99.90
56428;DHT22;42331;53.578;9.760;2023-02-15T11:16:44;4.00;99.90
56428;DHT22;42331;53.578;9.760;2023-02-15T11:21:51;4.30;99.90
56428;DHT22;42331;53.578;9.760;2023-02-15T11:24:26;4.40;99.90
56428;DHT22;42331;53.578;9.760;2023-02-15T11:29:59;4.20;99.90
56428;DHT22;42331;53.578;9.760;2023-02-15T11:32:34;4.20;99.90
56428;DHT22;42331;53.578;9.760;2023-02-15T11:37:57;4.30;99.90
56428;DHT22;42331;53.578;9.760;2023-02-15T11:40:41;4.30;99.90
56428;DHT22;42331;53.578;9.760;2023-02-15T11:43:31;4.30;99.90
56428;DHT22;42331;53.578;9.760;2023-02-15T11:46:05;4.30;99.90
56428;DHT22;42331;53.578;9.760;2023-02-15T11:48:37;4.20;99.90
56428;DHT22;42331;53.578;9.760;2023-02-15T11:51:11;4.40;99.90
56428;DHT22;42331;53.578;9.760;2023-02-15T11:53:45;4.40;99.90
56428;DHT22;42331;53.578;9.760;2023-02-15T11:56:22;4.50;99.90
56428;DHT22;42331;53.578;9.760;2023-02-15T11:59:17;4.70;99.90
56428;DHT22;42331;53.578;9.760;2023-02-15T12:01:49;4.80;99.90
56428;DHT22;42331;53.578;9.760;2023-02-15T12:07:30;4.80;99.90
56428;DHT22;42331;53.578;9.760;2023-02-15T12:10:05;4.80;99.90
56428;DHT22;42331;53.578;9.760;2023-02-15T12:12:44;5.00;99.90
56428;DHT22;42331;53.578;9.760;2023-02-15T12:15:30;5.20;99.90
56428;DHT22;42331;53.578;9.760;2023-02-15T12:18:01;5.40;99.90
56428;DHT22;42331;53.578;9.760;2023-02-15T12:20:33;5.50;99.90
56428;DHT22;42331;53.578;9.760;2023-02-15T12:23:11;5.60;99.90
56428;DHT22;42331;53.578;9.760;2023-02-15T12:25:49;5.70;99.90
56428;DHT22;42331;53.578;9.760;2023-02-15T12:28:34;5.80;99.90
56428;DHT22;42331;53.578;9.760;2023-02-15T12:31:21;5.70;99.90
56428;DHT22;42331;53.578;9.760;2023-02-15T12:33:56;5.80;99.90
56428;DHT22;42331;53.578;9.760;2023-02-15T12:36:43;5.70;99.90
56428;DHT22;42331;53.578;9.760;2023-02-15T12:39:23;5.90;99.90
56428;DHT22;42331;53.578;9.760;2023-02-15T12:42:03;5.70;99.90
56428;DHT22;42331;53.578;9.760;2023-02-15T12:44:35;5.70;99.90
56428;DHT22;42331;53.578;9.760;2023-02-15T12:50:26;5.80;99.90
56428;DHT22;42331;53.578;9.760;2023-02-15T12:55:56;6.10;99.90
56428;DHT22;42331;53.578;9.760;2023-02-15T12:58:31;6.20;99.90
56428;DHT22;42331;53.578;9.760;2023-02-15T13:03:58;6.40;99.90
56428;DHT22;42331;53.578;9.760;2023-02-15T13:06:34;6.50;99.90
56428;DHT22;42331;53.578;9.760;2023-02-15T13:09:35;6.60;99.90
56428;DHT22;42331;53.578;9.760;2023-02-15T13:12:22;6.60;99.90
56428;DHT22;42331;53.578;9.760;2023-02-15T13:14:58;6.70;99.90
56428;DHT22;42331;53.578;9.760;2023-02-15T13:17:33;6.80;99.90
56428;DHT22;42331;53.578;9.760;2023-02-15T13:20:13;7.00;99.90
56428;DHT22;42331;53.578;9.760;2023-02-15T13:22:47;7.00;99.90
56428;DHT22;42331;53.578;9.760;2023-02-15T13:25:21;7.10;99.90
56428;DHT22;42331;53.578;9.760;2023-02-15T13:27:57;7.10;99.90
56428;DHT22;42331;53.578;9.760;2023-02-15T13:30:34;7.30;99.90
56428;DHT22;42331;53.578;9.760;2023-02-15T13:33:10;7.30;99.90
56428;DHT22;42331;53.578;9.760;2023-02-15T13:38:46;7.60;99.90
56428;DHT22;42331;53.578;9.760;2023-02-15T13:41:33;7.50;99.90
56428;DHT22;42331;53.578;9.760;2023-02-15T13:44:24;7.40;99.90
56428;DHT22;42331;53.578;9.760;2023-02-15T13:52:22;7.30;99.90
56428;DHT22;42331;53.578;9.760;2023-02-15T14:03:41;7.50;99.90
56428;DHT22;42331;53.578;9.760;2023-02-15T14:18:27;7.90;99.90
56428;DHT22;42331;53.578;9.760;2023-02-15T14:24:22;7.90;99.90
56428;DHT22;42331;53.578;9.760;2023-02-15T14:29:43;7.90;99.90
56428;DHT22;42331;53.578;9.760;2023-02-15T14:32:42;7.80;99.90
56428;DHT22;42331;53.578;9.760;2023-02-15T14:35:19;7.80;99.90
56428;DHT22;42331;53.578;9.760;2023-02-15T14:38:13;7.70;99.90
56428;DHT22;42331;53.578;9.760;2023-02-15T14:43:42;7.60;99.90
56428;DHT22;42331;53.578;9.760;2023-02-15T14:49:36;7.70;99.90
56428;DHT22;42331;53.578;9.760;2023-02-15T15:02:30;7.80;99.90
56428;DHT22;42331;53.578;9.760;2023-02-15T15:05:20;7.80;99.90
56428;DHT22;42331;53.578;9.760;2023-02-15T15:07:57;7.80;99.90
56428;DHT22;42331;53.578;9.760;2023-02-15T15:10:36;7.80;99.90
56428;DHT22;42331;53.578;9.760;2023-02-15T15:19:11;7.90;99.90
56428;DHT22;42331;53.578;9.760;2023-02-15T15:27:36;7.80;99.90
56428;DHT22;42331;53.578;9.760;2023-02-15T15:49:56;7.30;99.90
56428;DHT22;42331;53.578;9.760;2023-02-15T15:52:29;7.20;99.90
56428;DHT22;42331;53.578;9.760;2023-02-15T15:55:04;7.10;99.90
56428;DHT22;42331;53.578;9.760;2023-02-15T15:57:44;7.00;99.90
56428;DHT22;42331;53.578;9.760;2023-02-15T16:03:34;6.90;99.90
56428;DHT22;42331;53.578;9.760;2023-02-15T16:06:06;6.90;99.90
56428;DHT22;42331;53.578;9.760;2023-02-15T16:08:41;6.90;99.90
56428;DHT22;42331;53.578;9.760;2023-02-15T16:11:26;6.80;99.90
56428;DHT22;42331;53.578;9.760;2023-02-15T16:13:59;6.70;99.90
56428;DHT22;42331;53.578;9.760;2023-02-15T16:16:33;6.60;99.90
56428;DHT22;42331;53.578;9.760;2023-02-15T16:19:03;6.50;99.90
56428;DHT22;42331;53.578;9.760;2023-02-15T16:21:36;6.40;99.90
56428;DHT22;42331;53.578;9.760;2023-02-15T16:27:36;6.20;99.90
56428;DHT22;42331;53.578;9.760;2023-02-15T16:30:28;6.00;99.90
56428;DHT22;42331;53.578;9.760;2023-02-15T16:33:13;5.90;99.90
56428;DHT22;42331;53.578;9.760;2023-02-15T16:35:56;5.80;99.90
56428;DHT22;42331;53.578;9.760;2023-02-15T16:41:15;5.70;99.90
56428;DHT22;42331;53.578;9.760;2023-02-15T16:43:49;5.70;99.90
56428;DHT22;42331;53.578;9.760;2023-02-15T16:48:58;5.50;99.90
56428;DHT22;42331;53.578;9.760;2023-02-15T16:51:33;5.50;99.90
56428;DHT22;42331;53.578;9.760;2023-02-15T16:54:07;5.40;99.90
56428;DHT22;42331;53.578;9.760;2023-02-15T16:56:38;5.40;99.90
56428;DHT22;42331;53.578;9.760;2023-02-15T17:02:34;5.30;99.90
56428;DHT22;42331;53.578;9.760;2023-02-15T17:07:49;5.10;99.90
56428;DHT22;42331;53.578;9.760;2023-02-15T17:10:39;5.10;99.90
56428;DHT22;42331;53.578;9.760;2023-02-15T17:13:12;5.00;99.90
56428;DHT22;42331;53.578;9.760;2023-02-15T17:18:39;4.90;99.90
56428;DHT22;42331;53.578;9.760;2023-02-15T17:21:19;4.90;99.90
56428;DHT22;42331;53.578;9.760;2023-02-15T17:23:57;4.90;99.90
56428;DHT22;42331;53.578;9.760;2023-02-15T17:26:33;4.90;99.90
56428;DHT22;42331;53.578;9.760;2023-02-15T17:29:22;4.90;99.90
56428;DHT22;42331;53.578;9.760;2023-02-15T17:31:55;4.90;99.90
56428;DHT22;42331;53.578;9.760;2023-02-15T17:40:29;4.90;99.90
56428;DHT22;42331;53.578;9.760;2023-02-15T17:43:01;4.90;99.90
56428;DHT22;42331;53.578;9.760;2023-02-15T17:45:35;4.90;99.90
56428;DHT22;42331;53.578;9.760;2023-02-15T17:48:06;4.90;99.90
56428;DHT22;42331;53.578;9.760;2023-02-15T17:50:46;5.00;99.90
56428;DHT22;42331;53.578;9.760;2023-02-15T17:53:17;5.10;99.90
56428;DHT22;42331;53.578;9.760;2023-02-15T17:55:48;5.00;99.90
56428;DHT22;42331;53.578;9.760;2023-02-15T17:58:19;5.10;99.90
56428;DHT22;42331;53.578;9.760;2023-02-15T18:00:53;5.30;99.90
56428;DHT22;42331;53.578;9.760;2023-02-15T18:03:47;5.30;99.90
56428;DHT22;42331;53.578;9.760;2023-02-15T18:06:39;5.30;99.90
56428;DHT22;42331;53.578;9.760;2023-02-15T18:09:29;5.20;99.90
56428;DHT22;42331;53.578;9.760;2023-02-15T18:14:54;5.30;99.90
56428;DHT22;42331;53.578;9.760;2023-02-15T18:17:32;5.30;99.90
56428;DHT22;42331;53.578;9.760;2023-02-15T18:20:09;5.20;99.90
56428;DHT22;42331;53.578;9.760;2023-02-15T18:22:47;5.20;99.90
56428;DHT22;42331;53.578;9.760;2023-02-15T18:25:20;5.30;99.90
56428;DHT22;42331;53.578;9.760;2023-02-15T18:27:52;5.30;99.90
56428;DHT22;42331;53.578;9.760;2023-02-15T18:30:23;5.30;99.90
56428;DHT22;42331;53.578;9.760;2023-02-15T18:32:58;5.40;99.90
56428;DHT22;42331;53.578;9.760;2023-02-15T18:35:31;5.40;99.90
56428;DHT22;42331;53.578;9.760;2023-02-15T18:38:02;5.40;99.90
56428;DHT22;42331;53.578;9.760;2023-02-15T18:40:33;5.40;99.90
56428;DHT22;42331;53.578;9.760;2023-02-15T18:43:04;5.30;99.90
56428;DHT22;42331;53.578;9.760;2023-02-15T18:45:35;5.30;99.90
56428;DHT22;42331;53.578;9.760;2023-02-15T18:48:08;5.40;99.90
56428;DHT22;42331;53.578;9.760;2023-02-15T18:50:39;5.30;99.90
56428;DHT22;42331;53.578;9.760;2023-02-15T18:53:16;5.40;99.90
56428;DHT22;42331;53.578;9.760;2023-02-15T18:55:48;5.40;99.90
56428;DHT22;42331;53.578;9.760;2023-02-15T18:58:21;5.40;99.90
56428;DHT22;42331;53.578;9.760;2023-02-15T19:00:53;5.50;99.90
56428;DHT22;42331;53.578;9.760;2023-02-15T19:03:25;5.50;99.90
56428;DHT22;42331;53.578;9.760;2023-02-15T19:05:56;5.50;99.90
56428;DHT22;42331;53.578;9.760;2023-02-15T19:08:28;5.50;99.90
56428;DHT22;42331;53.578;9.760;2023-02-15T19:10:58;5.40;99.90
56428;DHT22;42331;53.578;9.760;2023-02-15T19:13:30;5.40;99.90
56428;DHT22;42331;53.578;9.760;2023-02-15T19:16:00;5.40;99.90
56428;DHT22;42331;53.578;9.760;2023-02-15T19:18:32;5.40;99.90
56428;DHT22;42331;53.578;9.760;2023-02-15T19:21:03;5.30;99.90
56428;DHT22;42331;53.578;9.760;2023-02-15T19:23:35;5.30;99.90
56428;DHT22;42331;53.578;9.760;2023-02-15T19:26:09;5.30;99.90
56428;DHT22;42331;53.578;9.760;2023-02-15T19:28:41;5.40;99.90
56428;DHT22;42331;53.578;9.760;2023-02-15T19:31:12;5.40;99.90
56428;DHT22;42331;53.578;9.760;2023-02-15T19:33:43;5.40;99.90
56428;DHT22;42331;53.578;9.760;2023-02-15T19:36:16;5.40;99.90
56428;DHT22;42331;53.578;9.760;2023-02-15T19:38:50;5.40;99.90
56428;DHT22;42331;53.578;9.760;2023-02-15T19:41:28;5.30;99.90
56428;DHT22;42331;53.578;9.760;2023-02-15T19:44:00;5.30;99.90
56428;DHT22;42331;53.578;9.760;2023-02-15T19:46:31;5.30;99.90
56428;DHT22;42331;53.578;9.760;2023-02-15T19:49:03;5.30;99.90
56428;DHT22;42331;53.578;9.760;2023-02-15T19:51:34;5.20;99.90
56428;DHT22;42331;53.578;9.760;2023-02-15T19:54:32;5.10;99.90
56428;DHT22;42331;53.578;9.760;2023-02-15T19:57:03;5.00;99.90
56428;DHT22;42331;53.578;9.760;2023-02-15T19:59:34;4.90;99.90
56428;DHT22;42331;53.578;9.760;2023-02-15T20:02:05;4.90;99.90
56428;DHT22;42331;53.578;9.760;2023-02-15T20:04:36;4.80;99.90
56428;DHT22;42331;53.578;9.760;2023-02-15T20:07:29;4.80;99.90
56428;DHT22;42331;53.578;9.760;2023-02-15T20:10:19;4.70;99.90
56428;DHT22;42331;53.578;9.760;2023-02-15T20:12:53;4.80;99.90
56428;DHT22;42331;53.578;9.760;2023-02-15T20:15:33;4.80;99.90
56428;DHT22;42331;53.578;9.760;2023-02-15T20:18:06;4.80;99.90
56428;DHT22;42331;53.578;9.760;2023-02-15T20:23:26;4.70;99.90
56428;DHT22;42331;53.578;9.760;2023-02-15T20:25:59;4.70;99.90
56428;DHT22;42331;53.578;9.760;2023-02-15T20:28:33;4.70;99.90